Terminal Aerodrome Forecast
Issued by NWS Twin Cities, MN

Home | Current Version | Previous Version | Graphics & Text | Print | Product List | Glossary Off
Versions: 1 2 3 4 5 6 7 8 9 10 11 12 13 14 15 16

000
FTUS43 KMPX 301100
TAFEAU
TAF
KEAU 301138Z 3012/3112 00000KT 5SM -SHRA BR OVC015
     FM301400 35005KT P6SM BKN010 OVC020
     FM301900 34005KT P6SM BKN020 OVC040
     FM302100 VRB03KT P6SM SCT025 BKN050
     FM310600 VRB02KT 3SM BR SKC
     FM310800 14002KT 1/4SM FG VV002=

USA.gov is the U.S. government's official web portal to all federal, state and local government web resources and services.